Virtsu — MGLJ3 — position and weather

sailwx.info

Track history (hours):
 
Tides and Currents Weather Stations Pressure Air Temp Water Temp Dewpoint Dewpoint Depression Visibility Wind Speed Wind Dir Waves Ship Positions

Virtsu

Last reported at 2014-May-03 08:16 UTC. Time now 2014-Oct-31 17:54 UTC.
Position N 40°27' E 026°51'.
Warning: this ship's position is months out of date.

Length 90 m; draft 4.4 m.

Type: Cargo ship. MMSI: 232414000.

Date/timePositionNaut miles runAvg speedWind from/ knotsBaromVisibWave heightAir tempDewpointWater temp
2014-May-03 08:16N 40°27' E 026°51'1411.8
2014-May-03 07:04N 40°19' E 026°36'5211.2
2014-May-03 02:24N 39°44' E 025°46'1112.3
2014-May-03 01:30N 39°34' E 025°39'22513.0
2014-May-02 08:15N 36°23' E 023°08'39813.4
2014-May-01 02:31N 36°26' E 014°54'1413.1
2014-May-01 01:29N 36°26' E 014°37'1213.3
2014-May-01 00:33N 36°30' E 014°23'1313.0
2014-Apr-30 23:33N 36°34' E 014°07'1312.9
2014-Apr-30 22:31N 36°39' E 013°51'1313.3
2014-Apr-30 21:33N 36°43' E 013°36'1413.8
2014-Apr-30 20:33N 36°47' E 013°20'1313.2
2014-Apr-30 19:33N 36°51' E 013°04'1312.7
2014-Apr-30 18:33N 36°55' E 012°49'1312.7
2014-Apr-30 17:33N 36°60' E 012°34'2812.7
2014-Apr-30 15:21N 37°09' E 012°01'1413.2
2014-Apr-30 14:15N 37°13' E 011°44'913.5
2014-Apr-30 13:33N 37°16' E 011°33'1313.2
2014-Apr-30 12:33N 37°20' E 011°17'1413.5
2014-Apr-30 11:31N 37°24' E 011°00'1313.7
2014-Apr-30 10:33N 37°27' E 010°44'1413.7
2014-Apr-30 09:33N 37°30' E 010°27'1414.1
2014-Apr-30 08:32N 37°33' E 010°09'26713.2
2014-Apr-29 12:23N 37°07' E 004°35'1214.1
2014-Apr-29 11:33N 37°05' E 004°21'1414.2
2014-Apr-29 10:33N 37°03' E 004°03'  
2014-Apr-24 21:25N 36°54' E 007°46'5 2.5
2014-Apr-24 19:33N 36°55' E 007°52'  
Track history (hours):
 
Tides and Currents Weather Stations Pressure Air Temp Water Temp Dewpoint Dewpoint Depression Visibility Wind Speed Wind Dir Waves Ship Positions

Virtsu

Last reported at 2014-May-03 08:16 UTC. Time now 2014-Oct-31 17:54 UTC.
Position N 40°27' E 026°51'.
Warning: this ship's position is months out of date.

Length 90 m; draft 4.4 m.

Type: Cargo ship. MMSI: 232414000.

Date/timePositionNaut miles runAvg speedWind from/ knotsBaromVisibWave heightAir tempDewpointWater temp
2014-May-03 08:16N 40°27' E 026°51'1411.8
2014-May-03 07:04N 40°19' E 026°36'5211.2
2014-May-03 02:24N 39°44' E 025°46'1112.3
2014-May-03 01:30N 39°34' E 025°39'22513.0
2014-May-02 08:15N 36°23' E 023°08'39813.4
2014-May-01 02:31N 36°26' E 014°54'1413.1
2014-May-01 01:29N 36°26' E 014°37'1213.3
2014-May-01 00:33N 36°30' E 014°23'1313.0
2014-Apr-30 23:33N 36°34' E 014°07'1312.9
2014-Apr-30 22:31N 36°39' E 013°51'1313.3
2014-Apr-30 21:33N 36°43' E 013°36'1413.8
2014-Apr-30 20:33N 36°47' E 013°20'1313.2
2014-Apr-30 19:33N 36°51' E 013°04'1312.7
2014-Apr-30 18:33N 36°55' E 012°49'1312.7
2014-Apr-30 17:33N 36°60' E 012°34'2812.7
2014-Apr-30 15:21N 37°09' E 012°01'1413.2
2014-Apr-30 14:15N 37°13' E 011°44'913.5
2014-Apr-30 13:33N 37°16' E 011°33'1313.2
2014-Apr-30 12:33N 37°20' E 011°17'1413.5
2014-Apr-30 11:31N 37°24' E 011°00'1313.7
2014-Apr-30 10:33N 37°27' E 010°44'1413.7
2014-Apr-30 09:33N 37°30' E 010°27'1414.1
2014-Apr-30 08:32N 37°33' E 010°09'26713.2
2014-Apr-29 12:23N 37°07' E 004°35'1214.1
2014-Apr-29 11:33N 37°05' E 004°21'1414.2
2014-Apr-29 10:33N 37°03' E 004°03'  
2014-Apr-24 21:25N 36°54' E 007°46'5 2.5
2014-Apr-24 19:33N 36°55' E 007°52'  

Dump ship's entire track history